sensor_id;sensor_type;location;lat;lon;timestamp;temperature;humidity
3550;DHT22;45572;48.804;8.330;2023-07-24T00:02:04;18.40;96.30
3550;DHT22;45572;48.804;8.330;2023-07-24T00:04:32;18.50;96.50
3550;DHT22;45572;48.804;8.330;2023-07-24T00:07:00;18.50;96.10
3550;DHT22;45572;48.804;8.330;2023-07-24T00:09:29;18.50;96.10
3550;DHT22;45572;48.804;8.330;2023-07-24T00:11:58;18.40;96.00
3550;DHT22;45572;48.804;8.330;2023-07-24T00:14:26;18.40;96.00
3550;DHT22;45572;48.804;8.330;2023-07-24T00:16:54;18.40;96.20
3550;DHT22;45572;48.804;8.330;2023-07-24T00:19:21;18.40;96.00
3550;DHT22;45572;48.804;8.330;2023-07-24T00:21:49;18.40;96.40
3550;DHT22;45572;48.804;8.330;2023-07-24T00:24:17;18.40;96.40
3550;DHT22;45572;48.804;8.330;2023-07-24T00:26:44;18.40;96.10
3550;DHT22;45572;48.804;8.330;2023-07-24T00:29:13;18.40;96.00
3550;DHT22;45572;48.804;8.330;2023-07-24T00:31:41;18.40;96.30
3550;DHT22;45572;48.804;8.330;2023-07-24T00:34:09;18.40;95.90
3550;DHT22;45572;48.804;8.330;2023-07-24T00:36:39;18.40;96.00
3550;DHT22;45572;48.804;8.330;2023-07-24T00:39:07;18.40;96.00
3550;DHT22;45572;48.804;8.330;2023-07-24T00:41:34;18.40;96.00
3550;DHT22;45572;48.804;8.330;2023-07-24T00:44:02;18.40;96.10
3550;DHT22;45572;48.804;8.330;2023-07-24T00:46:31;18.40;96.10
3550;DHT22;45572;48.804;8.330;2023-07-24T00:49:00;18.40;96.10
3550;DHT22;45572;48.804;8.330;2023-07-24T00:51:31;18.40;96.40
3550;DHT22;45572;48.804;8.330;2023-07-24T00:54:02;18.40;96.40
3550;DHT22;45572;48.804;8.330;2023-07-24T00:56:30;18.40;96.50
3550;DHT22;45572;48.804;8.330;2023-07-24T00:58:59;18.30;96.10
3550;DHT22;45572;48.804;8.330;2023-07-24T01:01:28;18.40;96.20
3550;DHT22;45572;48.804;8.330;2023-07-24T01:03:58;18.30;96.00
3550;DHT22;45572;48.804;8.330;2023-07-24T01:06:25;18.30;96.10
3550;DHT22;45572;48.804;8.330;2023-07-24T01:08:54;18.30;96.60
3550;DHT22;45572;48.804;8.330;2023-07-24T01:11:27;18.10;96.40
3550;DHT22;45572;48.804;8.330;2023-07-24T01:13:58;18.10;96.20
3550;DHT22;45572;48.804;8.330;2023-07-24T01:16:36;18.10;96.10
3550;DHT22;45572;48.804;8.330;2023-07-24T01:19:12;18.10;95.70
3550;DHT22;45572;48.804;8.330;2023-07-24T01:22:01;18.10;95.60
3550;DHT22;45572;48.804;8.330;2023-07-24T01:24:39;18.10;95.40
3550;DHT22;45572;48.804;8.330;2023-07-24T01:27:20;18.20;95.30
3550;DHT22;45572;48.804;8.330;2023-07-24T01:29:47;18.30;95.20
3550;DHT22;45572;48.804;8.330;2023-07-24T01:32:15;18.30;94.70
3550;DHT22;45572;48.804;8.330;2023-07-24T01:34:44;18.30;94.90
3550;DHT22;45572;48.804;8.330;2023-07-24T01:37:12;18.40;94.80
3550;DHT22;45572;48.804;8.330;2023-07-24T01:39:40;18.30;94.90
3550;DHT22;45572;48.804;8.330;2023-07-24T01:42:10;18.30;94.80
3550;DHT22;45572;48.804;8.330;2023-07-24T01:44:39;18.30;94.90
3550;DHT22;45572;48.804;8.330;2023-07-24T01:47:07;18.30;95.20
3550;DHT22;45572;48.804;8.330;2023-07-24T01:49:35;18.30;95.50
3550;DHT22;45572;48.804;8.330;2023-07-24T01:52:03;18.20;95.90
3550;DHT22;45572;48.804;8.330;2023-07-24T01:54:31;18.20;95.70
3550;DHT22;45572;48.804;8.330;2023-07-24T01:56:59;18.20;95.80
3550;DHT22;45572;48.804;8.330;2023-07-24T01:59:26;18.20;96.00
3550;DHT22;45572;48.804;8.330;2023-07-24T02:01:55;18.20;96.00
3550;DHT22;45572;48.804;8.330;2023-07-24T02:04:23;18.10;95.90
3550;DHT22;45572;48.804;8.330;2023-07-24T02:06:51;18.10;96.20
3550;DHT22;45572;48.804;8.330;2023-07-24T02:09:19;18.10;96.10
3550;DHT22;45572;48.804;8.330;2023-07-24T02:11:47;18.20;96.10
3550;DHT22;45572;48.804;8.330;2023-07-24T02:14:17;18.20;96.20
3550;DHT22;45572;48.804;8.330;2023-07-24T02:16:45;18.30;95.90
3550;DHT22;45572;48.804;8.330;2023-07-24T02:19:14;18.30;95.70
3550;DHT22;45572;48.804;8.330;2023-07-24T02:21:42;18.20;95.70
3550;DHT22;45572;48.804;8.330;2023-07-24T02:24:09;18.20;95.70
3550;DHT22;45572;48.804;8.330;2023-07-24T02:26:37;18.20;95.60
3550;DHT22;45572;48.804;8.330;2023-07-24T02:29:05;18.20;95.80
3550;DHT22;45572;48.804;8.330;2023-07-24T02:31:33;18.20;95.70
3550;DHT22;45572;48.804;8.330;2023-07-24T02:34:01;18.20;95.80
3550;DHT22;45572;48.804;8.330;2023-07-24T02:36:30;18.10;95.70
3550;DHT22;45572;48.804;8.330;2023-07-24T02:38:58;18.20;95.40
3550;DHT22;45572;48.804;8.330;2023-07-24T02:41:27;18.20;95.80
3550;DHT22;45572;48.804;8.330;2023-07-24T02:43:54;18.20;96.00
3550;DHT22;45572;48.804;8.330;2023-07-24T02:46:22;18.30;96.20
3550;DHT22;45572;48.804;8.330;2023-07-24T02:48:52;18.30;96.30
3550;DHT22;45572;48.804;8.330;2023-07-24T02:51:19;18.30;96.00
3550;DHT22;45572;48.804;8.330;2023-07-24T02:53:49;18.30;95.90
3550;DHT22;45572;48.804;8.330;2023-07-24T02:56:19;18.30;95.60
3550;DHT22;45572;48.804;8.330;2023-07-24T02:58:47;18.40;95.40
3550;DHT22;45572;48.804;8.330;2023-07-24T03:01:14;18.40;95.40
3550;DHT22;45572;48.804;8.330;2023-07-24T03:03:42;18.40;95.10
3550;DHT22;45572;48.804;8.330;2023-07-24T03:06:10;18.40;94.60
3550;DHT22;45572;48.804;8.330;2023-07-24T03:08:38;18.40;94.80
3550;DHT22;45572;48.804;8.330;2023-07-24T03:11:07;18.50;95.10
3550;DHT22;45572;48.804;8.330;2023-07-24T03:13:35;18.40;95.20
3550;DHT22;45572;48.804;8.330;2023-07-24T03:16:03;18.30;95.50
3550;DHT22;45572;48.804;8.330;2023-07-24T03:18:31;18.30;95.70
3550;DHT22;45572;48.804;8.330;2023-07-24T03:20:59;18.30;95.30
3550;DHT22;45572;48.804;8.330;2023-07-24T03:23:29;18.40;95.40
3550;DHT22;45572;48.804;8.330;2023-07-24T03:25:56;18.40;94.70
3550;DHT22;45572;48.804;8.330;2023-07-24T03:28:25;18.50;94.30
3550;DHT22;45572;48.804;8.330;2023-07-24T03:30:54;18.60;94.20
3550;DHT22;45572;48.804;8.330;2023-07-24T03:33:22;18.60;94.00
3550;DHT22;45572;48.804;8.330;2023-07-24T03:35:50;18.60;93.70
3550;DHT22;45572;48.804;8.330;2023-07-24T03:38:18;18.60;94.00
3550;DHT22;45572;48.804;8.330;2023-07-24T03:40:46;18.70;93.70
3550;DHT22;45572;48.804;8.330;2023-07-24T03:43:15;18.60;93.90
3550;DHT22;45572;48.804;8.330;2023-07-24T03:45:44;18.70;93.80
3550;DHT22;45572;48.804;8.330;2023-07-24T03:48:12;18.80;93.00
3550;DHT22;45572;48.804;8.330;2023-07-24T03:50:40;18.80;92.70
3550;DHT22;45572;48.804;8.330;2023-07-24T03:53:08;18.80;92.80
3550;DHT22;45572;48.804;8.330;2023-07-24T03:55:36;18.90;92.90
3550;DHT22;45572;48.804;8.330;2023-07-24T03:58:04;19.00;92.90
3550;DHT22;45572;48.804;8.330;2023-07-24T04:00:32;18.90;93.00
3550;DHT22;45572;48.804;8.330;2023-07-24T04:03:25;18.80;94.10
3550;DHT22;45572;48.804;8.330;2023-07-24T04:05:53;18.80;93.80
3550;DHT22;45572;48.804;8.330;2023-07-24T04:08:21;18.70;94.20
3550;DHT22;45572;48.804;8.330;2023-07-24T04:10:49;18.70;94.50
3550;DHT22;45572;48.804;8.330;2023-07-24T04:13:16;18.60;94.80
3550;DHT22;45572;48.804;8.330;2023-07-24T04:18:51;18.70;95.50
3550;DHT22;45572;48.804;8.330;2023-07-24T04:21:19;18.70;95.50
3550;DHT22;45572;48.804;8.330;2023-07-24T04:23:47;18.70;95.80
3550;DHT22;45572;48.804;8.330;2023-07-24T04:26:15;18.70;95.50
3550;DHT22;45572;48.804;8.330;2023-07-24T04:28:43;18.70;95.40
3550;DHT22;45572;48.804;8.330;2023-07-24T04:31:10;18.70;95.00
3550;DHT22;45572;48.804;8.330;2023-07-24T04:33:38;18.60;94.20
3550;DHT22;45572;48.804;8.330;2023-07-24T04:36:07;18.60;91.90
3550;DHT22;45572;48.804;8.330;2023-07-24T04:38:35;18.50;91.20
3550;DHT22;45572;48.804;8.330;2023-07-24T04:41:03;18.60;91.50
3550;DHT22;45572;48.804;8.330;2023-07-24T04:43:31;18.70;90.70
3550;DHT22;45572;48.804;8.330;2023-07-24T04:45:59;18.70;91.70
3550;DHT22;45572;48.804;8.330;2023-07-24T04:48:27;18.90;90.50
3550;DHT22;45572;48.804;8.330;2023-07-24T04:50:55;18.90;91.50
3550;DHT22;45572;48.804;8.330;2023-07-24T04:53:24;19.10;91.60
3550;DHT22;45572;48.804;8.330;2023-07-24T04:55:52;19.20;92.00
3550;DHT22;45572;48.804;8.330;2023-07-24T04:58:20;19.20;92.80
3550;DHT22;45572;48.804;8.330;2023-07-24T05:00:48;19.20;92.40
3550;DHT22;45572;48.804;8.330;2023-07-24T05:03:15;19.10;92.80
3550;DHT22;45572;48.804;8.330;2023-07-24T05:05:48;18.90;89.90
3550;DHT22;45572;48.804;8.330;2023-07-24T05:08:15;18.90;90.10
3550;DHT22;45572;48.804;8.330;2023-07-24T05:10:45;18.90;89.60
3550;DHT22;45572;48.804;8.330;2023-07-24T05:13:13;18.90;88.90
3550;DHT22;45572;48.804;8.330;2023-07-24T05:15:41;19.00;88.60
3550;DHT22;45572;48.804;8.330;2023-07-24T05:18:08;19.10;88.90
3550;DHT22;45572;48.804;8.330;2023-07-24T05:20:37;19.30;89.70
3550;DHT22;45572;48.804;8.330;2023-07-24T05:23:05;19.40;91.00
3550;DHT22;45572;48.804;8.330;2023-07-24T05:25:33;19.40;92.40
3550;DHT22;45572;48.804;8.330;2023-07-24T05:28:02;19.50;92.90
3550;DHT22;45572;48.804;8.330;2023-07-24T05:30:30;19.40;91.00
3550;DHT22;45572;48.804;8.330;2023-07-24T05:32:57;19.40;88.80
3550;DHT22;45572;48.804;8.330;2023-07-24T05:35:25;19.40;89.00
3550;DHT22;45572;48.804;8.330;2023-07-24T05:37:53;19.40;89.10
3550;DHT22;45572;48.804;8.330;2023-07-24T05:40:21;19.50;88.90
3550;DHT22;45572;48.804;8.330;2023-07-24T05:42:50;19.60;87.60
3550;DHT22;45572;48.804;8.330;2023-07-24T05:45:20;19.70;88.30
3550;DHT22;45572;48.804;8.330;2023-07-24T05:47:48;19.80;87.10
3550;DHT22;45572;48.804;8.330;2023-07-24T05:50:16;19.90;87.00
3550;DHT22;45572;48.804;8.330;2023-07-24T05:52:46;20.10;87.60
3550;DHT22;45572;48.804;8.330;2023-07-24T05:55:14;20.10;88.20
3550;DHT22;45572;48.804;8.330;2023-07-24T05:57:42;20.20;88.60
3550;DHT22;45572;48.804;8.330;2023-07-24T06:00:10;20.20;90.30
3550;DHT22;45572;48.804;8.330;2023-07-24T06:03:04;20.30;91.00
3550;DHT22;45572;48.804;8.330;2023-07-24T06:05:34;20.30;91.40
3550;DHT22;45572;48.804;8.330;2023-07-24T06:08:05;20.30;91.80
3550;DHT22;45572;48.804;8.330;2023-07-24T06:10:35;20.30;91.80
3550;DHT22;45572;48.804;8.330;2023-07-24T06:13:03;20.30;92.00
3550;DHT22;45572;48.804;8.330;2023-07-24T06:15:30;20.40;91.90
3550;DHT22;45572;48.804;8.330;2023-07-24T06:17:58;20.40;91.70
3550;DHT22;45572;48.804;8.330;2023-07-24T06:20:28;20.50;91.90
3550;DHT22;45572;48.804;8.330;2023-07-24T06:22:56;20.60;91.60
3550;DHT22;45572;48.804;8.330;2023-07-24T06:25:27;20.60;91.40
3550;DHT22;45572;48.804;8.330;2023-07-24T06:27:55;20.60;91.50
3550;DHT22;45572;48.804;8.330;2023-07-24T06:30:22;20.70;91.00
3550;DHT22;45572;48.804;8.330;2023-07-24T06:32:50;20.70;91.30
3550;DHT22;45572;48.804;8.330;2023-07-24T06:35:18;20.70;91.10
3550;DHT22;45572;48.804;8.330;2023-07-24T06:37:48;20.70;90.30
3550;DHT22;45572;48.804;8.330;2023-07-24T06:40:16;20.80;90.30
3550;DHT22;45572;48.804;8.330;2023-07-24T06:42:45;21.00;88.70
3550;DHT22;45572;48.804;8.330;2023-07-24T06:45:13;21.00;90.40
3550;DHT22;45572;48.804;8.330;2023-07-24T06:47:44;21.20;89.60
3550;DHT22;45572;48.804;8.330;2023-07-24T06:50:13;21.50;88.90
3550;DHT22;45572;48.804;8.330;2023-07-24T06:52:44;21.80;86.60
3550;DHT22;45572;48.804;8.330;2023-07-24T06:55:13;22.30;86.50
3550;DHT22;45572;48.804;8.330;2023-07-24T06:57:42;22.70;83.10
3550;DHT22;45572;48.804;8.330;2023-07-24T07:00:10;23.10;81.10
3550;DHT22;45572;48.804;8.330;2023-07-24T07:02:39;23.20;80.20
3550;DHT22;45572;48.804;8.330;2023-07-24T07:05:07;23.20;79.00
3550;DHT22;45572;48.804;8.330;2023-07-24T07:07:36;23.30;79.60
3550;DHT22;45572;48.804;8.330;2023-07-24T07:10:04;22.80;80.10
3550;DHT22;45572;48.804;8.330;2023-07-24T07:12:33;22.40;81.10
3550;DHT22;45572;48.804;8.330;2023-07-24T07:15:04;22.10;81.30
3550;DHT22;45572;48.804;8.330;2023-07-24T07:17:33;21.80;81.70
3550;DHT22;45572;48.804;8.330;2023-07-24T07:20:00;21.60;83.80
3550;DHT22;45572;48.804;8.330;2023-07-24T07:22:32;21.50;84.10
3550;DHT22;45572;48.804;8.330;2023-07-24T07:25:02;21.50;85.70
3550;DHT22;45572;48.804;8.330;2023-07-24T07:27:32;21.60;87.00
3550;DHT22;45572;48.804;8.330;2023-07-24T07:30:04;21.50;88.30
3550;DHT22;45572;48.804;8.330;2023-07-24T07:32:34;21.50;86.50
3550;DHT22;45572;48.804;8.330;2023-07-24T07:35:04;21.40;87.20
3550;DHT22;45572;48.804;8.330;2023-07-24T07:37:31;21.40;87.30
3550;DHT22;45572;48.804;8.330;2023-07-24T07:40:00;21.30;87.90
3550;DHT22;45572;48.804;8.330;2023-07-24T07:42:32;21.20;88.60
3550;DHT22;45572;48.804;8.330;2023-07-24T07:45:00;21.00;90.00
3550;DHT22;45572;48.804;8.330;2023-07-24T07:47:30;20.80;90.60
3550;DHT22;45572;48.804;8.330;2023-07-24T07:50:00;20.70;91.40
3550;DHT22;45572;48.804;8.330;2023-07-24T07:52:29;20.50;92.10
3550;DHT22;45572;48.804;8.330;2023-07-24T07:54:57;20.40;93.10
3550;DHT22;45572;48.804;8.330;2023-07-24T07:57:27;20.40;94.60
3550;DHT22;45572;48.804;8.330;2023-07-24T07:59:56;20.40;95.10
3550;DHT22;45572;48.804;8.330;2023-07-24T08:02:25;20.40;95.00
3550;DHT22;45572;48.804;8.330;2023-07-24T08:04:54;20.30;93.60
3550;DHT22;45572;48.804;8.330;2023-07-24T08:07:21;20.30;94.50
3550;DHT22;45572;48.804;8.330;2023-07-24T08:09:50;20.30;94.80
3550;DHT22;45572;48.804;8.330;2023-07-24T08:12:20;20.50;95.20
3550;DHT22;45572;48.804;8.330;2023-07-24T08:14:48;20.50;94.50
3550;DHT22;45572;48.804;8.330;2023-07-24T08:17:18;20.70;94.60
3550;DHT22;45572;48.804;8.330;2023-07-24T08:19:46;20.70;93.90
3550;DHT22;45572;48.804;8.330;2023-07-24T08:22:15;20.80;94.70
3550;DHT22;45572;48.804;8.330;2023-07-24T08:24:43;20.90;94.20
3550;DHT22;45572;48.804;8.330;2023-07-24T08:27:11;21.10;93.50
3550;DHT22;45572;48.804;8.330;2023-07-24T08:29:39;21.20;93.30
3550;DHT22;45572;48.804;8.330;2023-07-24T08:32:07;21.40;93.20
3550;DHT22;45572;48.804;8.330;2023-07-24T08:34:36;21.70;92.30
3550;DHT22;45572;48.804;8.330;2023-07-24T08:37:05;21.80;92.30
3550;DHT22;45572;48.804;8.330;2023-07-24T08:39:32;22.00;91.70
3550;DHT22;45572;48.804;8.330;2023-07-24T08:42:08;22.20;91.40
3550;DHT22;45572;48.804;8.330;2023-07-24T08:44:36;22.20;91.40
3550;DHT22;45572;48.804;8.330;2023-07-24T08:47:06;22.30;90.60
3550;DHT22;45572;48.804;8.330;2023-07-24T08:49:38;22.70;90.80
3550;DHT22;45572;48.804;8.330;2023-07-24T08:52:09;23.50;89.20
3550;DHT22;45572;48.804;8.330;2023-07-24T08:54:50;24.30;84.80
3550;DHT22;45572;48.804;8.330;2023-07-24T08:57:19;25.10;82.10
3550;DHT22;45572;48.804;8.330;2023-07-24T08:59:48;25.90;80.70
3550;DHT22;45572;48.804;8.330;2023-07-24T09:02:17;27.10;79.50
3550;DHT22;45572;48.804;8.330;2023-07-24T09:04:46;27.70;76.70
3550;DHT22;45572;48.804;8.330;2023-07-24T09:07:14;28.40;73.00
3550;DHT22;45572;48.804;8.330;2023-07-24T09:09:42;28.40;71.40
3550;DHT22;45572;48.804;8.330;2023-07-24T09:12:15;28.60;69.70
3550;DHT22;45572;48.804;8.330;2023-07-24T09:14:43;28.40;72.10
3550;DHT22;45572;48.804;8.330;2023-07-24T09:17:11;28.20;72.40
3550;DHT22;45572;48.804;8.330;2023-07-24T09:19:42;27.10;74.30
3550;DHT22;45572;48.804;8.330;2023-07-24T09:22:14;26.40;76.30
3550;DHT22;45572;48.804;8.330;2023-07-24T09:24:50;26.20;77.70
3550;DHT22;45572;48.804;8.330;2023-07-24T09:27:19;26.00;76.90
3550;DHT22;45572;48.804;8.330;2023-07-24T09:29:48;25.70;78.50
3550;DHT22;45572;48.804;8.330;2023-07-24T09:32:20;25.60;77.80
3550;DHT22;45572;48.804;8.330;2023-07-24T09:34:53;25.40;78.10
3550;DHT22;45572;48.804;8.330;2023-07-24T09:37:25;25.20;79.00
3550;DHT22;45572;48.804;8.330;2023-07-24T09:39:53;25.30;79.60
3550;DHT22;45572;48.804;8.330;2023-07-24T09:42:29;25.10;79.00
3550;DHT22;45572;48.804;8.330;2023-07-24T09:44:59;24.90;78.10
3550;DHT22;45572;48.804;8.330;2023-07-24T09:47:28;24.50;79.30
3550;DHT22;45572;48.804;8.330;2023-07-24T09:50:16;24.30;80.60
3550;DHT22;45572;48.804;8.330;2023-07-24T09:52:52;24.10;81.40
3550;DHT22;45572;48.804;8.330;2023-07-24T09:55:25;24.20;81.90
3550;DHT22;45572;48.804;8.330;2023-07-24T09:57:58;24.10;82.00
3550;DHT22;45572;48.804;8.330;2023-07-24T10:00:31;23.90;82.80
3550;DHT22;45572;48.804;8.330;2023-07-24T10:03:03;23.70;83.30
3550;DHT22;45572;48.804;8.330;2023-07-24T10:05:33;23.40;84.40
3550;DHT22;45572;48.804;8.330;2023-07-24T10:08:05;23.00;85.10
3550;DHT22;45572;48.804;8.330;2023-07-24T10:10:33;22.60;86.80
3550;DHT22;45572;48.804;8.330;2023-07-24T10:13:05;22.20;87.80
3550;DHT22;45572;48.804;8.330;2023-07-24T10:15:34;21.90;88.40
3550;DHT22;45572;48.804;8.330;2023-07-24T10:18:03;21.70;90.00
3550;DHT22;45572;48.804;8.330;2023-07-24T10:20:34;21.50;91.10
3550;DHT22;45572;48.804;8.330;2023-07-24T10:23:03;21.40;92.50
3550;DHT22;45572;48.804;8.330;2023-07-24T10:25:33;21.30;92.40
3550;DHT22;45572;48.804;8.330;2023-07-24T10:28:02;21.00;93.00
3550;DHT22;45572;48.804;8.330;2023-07-24T10:30:34;20.80;92.80
3550;DHT22;45572;48.804;8.330;2023-07-24T10:33:05;20.70;93.90
3550;DHT22;45572;48.804;8.330;2023-07-24T10:35:38;20.60;93.80
3550;DHT22;45572;48.804;8.330;2023-07-24T10:38:06;20.40;93.10
3550;DHT22;45572;48.804;8.330;2023-07-24T10:40:35;20.30;92.80
3550;DHT22;45572;48.804;8.330;2023-07-24T10:43:04;20.10;93.70
3550;DHT22;45572;48.804;8.330;2023-07-24T10:45:48;20.10;93.90
3550;DHT22;45572;48.804;8.330;2023-07-24T10:48:17;20.00;94.40
3550;DHT22;45572;48.804;8.330;2023-07-24T10:50:48;19.90;94.40
3550;DHT22;45572;48.804;8.330;2023-07-24T10:53:22;19.90;94.60
3550;DHT22;45572;48.804;8.330;2023-07-24T10:55:53;19.90;95.10
3550;DHT22;45572;48.804;8.330;2023-07-24T10:58:24;20.00;95.50
3550;DHT22;45572;48.804;8.330;2023-07-24T11:00:52;20.10;95.60
3550;DHT22;45572;48.804;8.330;2023-07-24T11:03:22;20.00;95.90
3550;DHT22;45572;48.804;8.330;2023-07-24T11:05:51;20.00;95.50
3550;DHT22;45572;48.804;8.330;2023-07-24T11:08:20;19.90;96.10
3550;DHT22;45572;48.804;8.330;2023-07-24T11:10:49;19.90;96.30
3550;DHT22;45572;48.804;8.330;2023-07-24T11:13:20;19.80;96.60
3550;DHT22;45572;48.804;8.330;2023-07-24T11:15:49;19.80;96.80
3550;DHT22;45572;48.804;8.330;2023-07-24T11:18:17;20.00;96.80
3550;DHT22;45572;48.804;8.330;2023-07-24T11:20:48;20.10;96.80
3550;DHT22;45572;48.804;8.330;2023-07-24T11:23:17;20.40;96.50
3550;DHT22;45572;48.804;8.330;2023-07-24T11:25:46;20.60;94.30
3550;DHT22;45572;48.804;8.330;2023-07-24T11:28:14;20.90;93.60
3550;DHT22;45572;48.804;8.330;2023-07-24T11:30:44;21.40;93.80
3550;DHT22;45572;48.804;8.330;2023-07-24T11:33:14;21.80;91.70
3550;DHT22;45572;48.804;8.330;2023-07-24T11:35:48;21.90;90.80
3550;DHT22;45572;48.804;8.330;2023-07-24T11:38:16;21.80;91.20
3550;DHT22;45572;48.804;8.330;2023-07-24T11:40:44;21.70;90.20
3550;DHT22;45572;48.804;8.330;2023-07-24T11:43:16;21.60;89.90
3550;DHT22;45572;48.804;8.330;2023-07-24T11:45:47;21.20;90.70
3550;DHT22;45572;48.804;8.330;2023-07-24T11:48:20;21.00;91.10
3550;DHT22;45572;48.804;8.330;2023-07-24T11:50:49;20.80;90.60
3550;DHT22;45572;48.804;8.330;2023-07-24T11:53:19;20.70;92.10
3550;DHT22;45572;48.804;8.330;2023-07-24T11:55:49;20.60;91.60
3550;DHT22;45572;48.804;8.330;2023-07-24T11:58:19;20.60;92.20
3550;DHT22;45572;48.804;8.330;2023-07-24T12:00:51;20.70;91.00
3550;DHT22;45572;48.804;8.330;2023-07-24T12:03:19;20.80;91.40
3550;DHT22;45572;48.804;8.330;2023-07-24T12:05:48;20.80;89.80
3550;DHT22;45572;48.804;8.330;2023-07-24T12:08:18;20.80;89.20
3550;DHT22;45572;48.804;8.330;2023-07-24T12:10:46;20.70;90.20
3550;DHT22;45572;48.804;8.330;2023-07-24T12:13:15;20.70;89.90
3550;DHT22;45572;48.804;8.330;2023-07-24T12:15:47;20.60;90.30
3550;DHT22;45572;48.804;8.330;2023-07-24T12:18:16;20.50;89.10
3550;DHT22;45572;48.804;8.330;2023-07-24T12:20:44;20.30;90.60
3550;DHT22;45572;48.804;8.330;2023-07-24T12:23:11;20.20;90.20
3550;DHT22;45572;48.804;8.330;2023-07-24T12:25:39;20.20;90.20
3550;DHT22;45572;48.804;8.330;2023-07-24T12:28:07;20.20;90.50
3550;DHT22;45572;48.804;8.330;2023-07-24T12:30:35;20.50;90.50
3550;DHT22;45572;48.804;8.330;2023-07-24T12:33:03;20.80;89.70
3550;DHT22;45572;48.804;8.330;2023-07-24T12:35:32;21.00;88.70
3550;DHT22;45572;48.804;8.330;2023-07-24T12:38:00;21.00;88.10
3550;DHT22;45572;48.804;8.330;2023-07-24T12:40:27;21.10;87.80
3550;DHT22;45572;48.804;8.330;2023-07-24T12:42:55;21.10;87.50
3550;DHT22;45572;48.804;8.330;2023-07-24T12:45:23;21.20;86.60
3550;DHT22;45572;48.804;8.330;2023-07-24T12:47:51;21.20;85.30
3550;DHT22;45572;48.804;8.330;2023-07-24T12:50:19;21.50;84.50
3550;DHT22;45572;48.804;8.330;2023-07-24T12:52:48;21.70;84.70
3550;DHT22;45572;48.804;8.330;2023-07-24T12:55:16;22.10;85.60
3550;DHT22;45572;48.804;8.330;2023-07-24T12:57:44;22.30;83.60
3550;DHT22;45572;48.804;8.330;2023-07-24T13:00:12;22.40;82.90
3550;DHT22;45572;48.804;8.330;2023-07-24T13:02:40;22.50;84.50
3550;DHT22;45572;48.804;8.330;2023-07-24T13:05:08;22.90;84.00
3550;DHT22;45572;48.804;8.330;2023-07-24T13:07:36;23.00;83.30
3550;DHT22;45572;48.804;8.330;2023-07-24T13:10:06;23.00;82.50
3550;DHT22;45572;48.804;8.330;2023-07-24T13:12:35;22.60;81.90
3550;DHT22;45572;48.804;8.330;2023-07-24T13:15:06;22.80;83.50
3550;DHT22;45572;48.804;8.330;2023-07-24T13:17:34;22.80;82.80
3550;DHT22;45572;48.804;8.330;2023-07-24T13:20:03;23.10;82.00
3550;DHT22;45572;48.804;8.330;2023-07-24T13:22:31;23.30;79.20
3550;DHT22;45572;48.804;8.330;2023-07-24T13:25:01;23.60;79.20
3550;DHT22;45572;48.804;8.330;2023-07-24T13:27:31;23.80;78.60
3550;DHT22;45572;48.804;8.330;2023-07-24T13:29:59;23.90;78.80
3550;DHT22;45572;48.804;8.330;2023-07-24T13:32:30;24.10;78.10
3550;DHT22;45572;48.804;8.330;2023-07-24T13:35:00;24.30;79.10
3550;DHT22;45572;48.804;8.330;2023-07-24T13:37:28;24.40;78.80
3550;DHT22;45572;48.804;8.330;2023-07-24T13:39:58;24.30;76.00
3550;DHT22;45572;48.804;8.330;2023-07-24T13:42:26;24.20;76.60
3550;DHT22;45572;48.804;8.330;2023-07-24T13:44:55;24.30;77.40
3550;DHT22;45572;48.804;8.330;2023-07-24T13:47:23;24.30;75.50
3550;DHT22;45572;48.804;8.330;2023-07-24T13:49:51;24.30;77.10
3550;DHT22;45572;48.804;8.330;2023-07-24T13:52:19;24.30;76.90
3550;DHT22;45572;48.804;8.330;2023-07-24T13:54:48;24.40;75.20
3550;DHT22;45572;48.804;8.330;2023-07-24T13:57:15;24.50;76.80
3550;DHT22;45572;48.804;8.330;2023-07-24T13:59:43;24.70;76.00
3550;DHT22;45572;48.804;8.330;2023-07-24T14:02:12;24.80;74.90
3550;DHT22;45572;48.804;8.330;2023-07-24T14:04:40;24.90;76.00
3550;DHT22;45572;48.804;8.330;2023-07-24T14:07:09;25.10;74.70
3550;DHT22;45572;48.804;8.330;2023-07-24T14:09:39;25.20;74.30
3550;DHT22;45572;48.804;8.330;2023-07-24T14:12:09;25.50;74.30
3550;DHT22;45572;48.804;8.330;2023-07-24T14:14:37;25.50;73.20
3550;DHT22;45572;48.804;8.330;2023-07-24T14:17:05;25.70;72.60
3550;DHT22;45572;48.804;8.330;2023-07-24T14:19:37;25.70;72.90
3550;DHT22;45572;48.804;8.330;2023-07-24T14:22:06;25.90;72.60
3550;DHT22;45572;48.804;8.330;2023-07-24T14:24:34;26.00;72.60
3550;DHT22;45572;48.804;8.330;2023-07-24T14:27:02;26.00;72.00
3550;DHT22;45572;48.804;8.330;2023-07-24T14:29:30;26.10;71.70
3550;DHT22;45572;48.804;8.330;2023-07-24T14:31:58;26.10;71.60
3550;DHT22;45572;48.804;8.330;2023-07-24T14:34:26;26.10;70.90
3550;DHT22;45572;48.804;8.330;2023-07-24T14:36:55;26.10;70.90
3550;DHT22;45572;48.804;8.330;2023-07-24T14:39:23;26.10;70.20
3550;DHT22;45572;48.804;8.330;2023-07-24T14:41:50;26.30;70.40
3550;DHT22;45572;48.804;8.330;2023-07-24T14:44:18;26.40;70.00
3550;DHT22;45572;48.804;8.330;2023-07-24T14:46:46;26.50;69.90
3550;DHT22;45572;48.804;8.330;2023-07-24T14:49:14;26.40;70.00
3550;DHT22;45572;48.804;8.330;2023-07-24T14:51:42;26.20;70.70
3550;DHT22;45572;48.804;8.330;2023-07-24T14:54:12;25.90;70.60
3550;DHT22;45572;48.804;8.330;2023-07-24T14:56:39;25.80;71.30
3550;DHT22;45572;48.804;8.330;2023-07-24T14:59:22;25.60;70.90
3550;DHT22;45572;48.804;8.330;2023-07-24T15:01:50;25.40;71.60
3550;DHT22;45572;48.804;8.330;2023-07-24T15:04:18;25.40;72.20
3550;DHT22;45572;48.804;8.330;2023-07-24T15:06:47;25.10;72.00
3550;DHT22;45572;48.804;8.330;2023-07-24T15:09:16;25.10;72.80
3550;DHT22;45572;48.804;8.330;2023-07-24T15:11:45;25.00;73.00
3550;DHT22;45572;48.804;8.330;2023-07-24T15:14:13;24.80;72.80
3550;DHT22;45572;48.804;8.330;2023-07-24T15:16:41;24.70;73.80
3550;DHT22;45572;48.804;8.330;2023-07-24T15:19:08;24.60;74.10
3550;DHT22;45572;48.804;8.330;2023-07-24T15:21:36;24.50;74.60
3550;DHT22;45572;48.804;8.330;2023-07-24T15:24:04;24.30;74.90
3550;DHT22;45572;48.804;8.330;2023-07-24T15:26:33;24.30;77.90
3550;DHT22;45572;48.804;8.330;2023-07-24T15:29:01;24.20;79.70
3550;DHT22;45572;48.804;8.330;2023-07-24T15:31:30;23.90;81.40
3550;DHT22;45572;48.804;8.330;2023-07-24T15:34:02;23.70;83.70
3550;DHT22;45572;48.804;8.330;2023-07-24T15:36:29;23.40;86.30
3550;DHT22;45572;48.804;8.330;2023-07-24T15:38:57;23.00;88.00
3550;DHT22;45572;48.804;8.330;2023-07-24T15:41:25;22.70;89.30
3550;DHT22;45572;48.804;8.330;2023-07-24T15:43:54;22.30;90.40
3550;DHT22;45572;48.804;8.330;2023-07-24T15:46:22;22.00;91.70
3550;DHT22;45572;48.804;8.330;2023-07-24T15:48:50;21.70;93.10
3550;DHT22;45572;48.804;8.330;2023-07-24T15:51:18;21.50;94.60
3550;DHT22;45572;48.804;8.330;2023-07-24T15:53:47;21.30;95.20
3550;DHT22;45572;48.804;8.330;2023-07-24T15:56:16;21.10;95.60
3550;DHT22;45572;48.804;8.330;2023-07-24T15:58:45;20.90;96.10
3550;DHT22;45572;48.804;8.330;2023-07-24T16:01:14;20.80;96.60